createdAt,value
2019-02-12T00:00:31.792Z,4.27
2019-02-12T00:02:59.181Z,4.27
2019-02-12T00:05:26.601Z,4.24
2019-02-12T00:07:53.967Z,4.23
2019-02-12T00:10:21.382Z,4.26
2019-02-12T00:12:48.791Z,4.23
2019-02-12T00:15:16.210Z,4.21
2019-02-12T00:17:43.591Z,4.20
2019-02-12T00:20:11.031Z,4.23
2019-02-12T00:22:38.406Z,4.19
2019-02-12T00:25:05.966Z,4.11
2019-02-12T00:27:33.341Z,4.10
2019-02-12T00:30:00.791Z,4.10
2019-02-12T00:32:28.168Z,4.07
2019-02-12T00:34:55.586Z,4.05
2019-02-12T00:37:22.972Z,4.07
2019-02-12T00:39:50.371Z,4.06
2019-02-12T00:42:17.741Z,4.08
2019-02-12T00:44:45.176Z,4.07
2019-02-12T00:47:12.580Z,4.02
2019-02-12T00:49:40.006Z,3.92
2019-02-12T00:52:07.407Z,3.88
2019-02-12T00:54:34.854Z,3.89
2019-02-12T00:57:02.241Z,3.84
2019-02-12T00:59:29.616Z,3.83
2019-02-12T01:01:56.686Z,3.79
2019-02-12T01:04:24.061Z,3.74
2019-02-12T01:06:51.500Z,3.76
2019-02-12T01:09:18.871Z,3.76
2019-02-12T01:11:46.273Z,3.74
2019-02-12T01:14:13.786Z,3.76
2019-02-12T01:16:41.191Z,3.76
2019-02-12T01:19:08.581Z,3.77
2019-02-12T01:21:35.991Z,3.81
2019-02-12T01:24:03.397Z,3.73
2019-02-12T01:26:30.806Z,3.69
2019-02-12T01:28:58.219Z,3.72
2019-02-12T01:31:25.728Z,3.72
2019-02-12T01:33:53.111Z,3.61
2019-02-12T01:36:20.530Z,3.66
2019-02-12T01:38:47.921Z,3.67
2019-02-12T01:41:15.352Z,3.65
2019-02-12T01:43:42.757Z,3.61
2019-02-12T01:46:10.161Z,3.58
2019-02-12T01:48:37.566Z,3.55
2019-02-12T01:51:04.987Z,3.58
2019-02-12T01:53:32.351Z,3.55
2019-02-12T01:55:59.794Z,3.56
2019-02-12T01:58:27.156Z,3.53
2019-02-12T02:00:54.582Z,3.48
2019-02-12T02:03:21.947Z,3.46
2019-02-12T02:05:49.396Z,3.49
2019-02-12T02:08:16.782Z,3.48
2019-02-12T02:10:44.206Z,3.45
2019-02-12T02:13:11.641Z,3.48
2019-02-12T02:15:39.071Z,3.52
2019-02-12T02:18:06.460Z,3.48
2019-02-12T02:20:33.821Z,3.52
2019-02-12T02:23:01.267Z,3.51
2019-02-12T02:25:28.643Z,3.52
2019-02-12T02:27:57.201Z,3.49
2019-02-12T02:30:24.574Z,3.48
2019-02-12T02:32:51.999Z,3.46
2019-02-12T02:35:19.379Z,3.52
2019-02-12T02:37:46.802Z,3.46
2019-02-12T02:40:14.191Z,3.50
2019-02-12T02:42:41.626Z,3.50
2019-02-12T02:45:09.577Z,3.49
2019-02-12T02:47:37.018Z,3.42
2019-02-12T02:50:04.786Z,3.38
2019-02-12T02:52:32.251Z,3.33
2019-02-12T02:54:59.701Z,3.22
2019-02-12T02:57:27.117Z,3.26
2019-02-12T02:59:54.490Z,3.30
2019-02-12T03:02:21.914Z,3.20
2019-02-12T03:04:49.696Z,3.18
2019-02-12T03:07:17.146Z,3.14
2019-02-12T03:09:44.517Z,3.08
2019-02-12T03:12:11.972Z,3.03
2019-02-12T03:14:39.362Z,2.98
2019-02-12T03:17:06.767Z,2.95
2019-02-12T03:19:34.136Z,2.86
2019-02-12T03:22:03.566Z,2.78
2019-02-12T03:24:30.853Z,2.75
2019-02-12T03:26:58.221Z,2.74
2019-02-12T03:29:25.633Z,2.73
2019-02-12T03:31:53.027Z,2.67
2019-02-12T03:34:20.449Z,2.61
2019-02-12T03:36:47.841Z,2.56
2019-02-12T03:39:15.276Z,2.56
2019-02-12T03:41:42.666Z,2.57
2019-02-12T03:44:10.116Z,2.55
2019-02-12T03:46:37.481Z,2.53
2019-02-12T03:49:04.934Z,2.51
2019-02-12T03:51:32.311Z,2.50
2019-02-12T03:53:59.741Z,2.49
2019-02-12T03:56:27.121Z,2.45
2019-02-12T03:58:54.894Z,2.43
2019-02-12T04:01:22.362Z,2.40
2019-02-12T04:03:49.898Z,2.38
2019-02-12T04:06:17.265Z,2.37
2019-02-12T04:08:44.695Z,2.37
2019-02-12T04:11:12.061Z,2.38
2019-02-12T04:13:39.541Z,2.39
2019-02-12T04:16:06.929Z,2.42
2019-02-12T04:18:34.482Z,2.37
2019-02-12T04:21:02.259Z,2.38
2019-02-12T04:23:29.740Z,2.37
2019-02-12T04:25:57.096Z,2.33
2019-02-12T04:28:24.529Z,2.36
2019-02-12T04:30:51.886Z,2.44
2019-02-12T04:33:19.292Z,2.47
2019-02-12T04:35:46.683Z,2.49
2019-02-12T04:38:14.116Z,2.55
2019-02-12T04:40:41.510Z,2.61
2019-02-12T04:43:08.916Z,2.68
2019-02-12T04:45:36.297Z,2.73
2019-02-12T04:48:03.822Z,2.70
2019-02-12T04:50:31.236Z,2.78
2019-02-12T04:52:58.676Z,2.77
2019-02-12T04:55:26.062Z,2.80
2019-02-12T04:57:53.447Z,2.84
2019-02-12T05:00:20.888Z,2.94
2019-02-12T05:02:48.271Z,3.02
2019-02-12T05:05:15.791Z,3.12
2019-02-12T05:07:43.182Z,3.22
2019-02-12T05:10:12.642Z,3.19
2019-02-12T05:12:40.058Z,3.15
2019-02-12T05:15:08.402Z,3.28
2019-02-12T05:17:35.763Z,3.22
2019-02-12T05:20:03.461Z,3.25
2019-02-12T05:22:30.869Z,3.23
2019-02-12T05:24:58.301Z,3.17
2019-02-12T05:27:25.656Z,3.13
2019-02-12T05:29:53.052Z,3.13
2019-02-12T05:32:20.416Z,3.07
2019-02-12T05:34:47.860Z,3.14
2019-02-12T05:37:15.283Z,3.12
2019-02-12T05:39:42.800Z,3.14
2019-02-12T05:42:10.166Z,3.12
2019-02-12T05:44:37.601Z,3.09
2019-02-12T05:47:06.914Z,3.10
2019-02-12T05:49:34.329Z,3.16
2019-02-12T05:52:01.711Z,3.14
2019-02-12T05:54:29.154Z,3.16
2019-02-12T05:56:56.534Z,3.13
2019-02-12T05:59:23.971Z,3.15
2019-02-12T06:01:51.383Z,3.18
2019-02-12T06:04:18.800Z,3.17
2019-02-12T06:06:49.339Z,3.15
2019-02-12T06:09:17.254Z,3.13
2019-02-12T06:11:49.261Z,3.15
2019-02-12T06:14:24.626Z,3.16
2019-02-12T06:16:52.373Z,3.16
2019-02-12T06:19:20.293Z,3.22
2019-02-12T06:21:47.751Z,3.16
2019-02-12T06:24:15.526Z,3.16
2019-02-12T06:26:43.565Z,3.20
2019-02-12T06:29:11.130Z,3.16
2019-02-12T06:31:41.346Z,3.12
2019-02-12T06:34:12.351Z,3.15
2019-02-12T06:36:39.866Z,3.14
2019-02-12T06:39:07.476Z,3.14
2019-02-12T06:41:34.962Z,3.15
2019-02-12T06:44:02.336Z,3.11
2019-02-12T06:46:29.958Z,3.08
2019-02-12T06:48:57.346Z,3.15
2019-02-12T06:51:24.776Z,3.25
2019-02-12T06:53:52.446Z,3.12
2019-02-12T06:56:19.861Z,3.16
2019-02-12T06:58:47.286Z,3.19
2019-02-12T07:01:14.821Z,3.13
2019-02-12T07:04:02.957Z,3.15
2019-02-12T07:06:55.636Z,3.15
2019-02-12T07:09:36.786Z,3.13
2019-02-12T07:12:47.907Z,3.11
2019-02-12T07:15:39.627Z,3.13
2019-02-12T07:18:43.278Z,3.17
2019-02-12T07:21:48.266Z,3.15
2019-02-12T07:24:46.364Z,3.20
2019-02-12T07:27:31.112Z,3.26
2019-02-12T07:30:51.541Z,3.28
2019-02-12T07:34:03.526Z,3.30
2019-02-12T07:37:04.759Z,3.33
2019-02-12T07:39:57.756Z,3.40
2019-02-12T07:42:51.746Z,3.40
2019-02-12T07:45:45.376Z,3.46
2019-02-12T07:48:38.381Z,3.42
2019-02-12T07:51:37.166Z,3.39
2019-02-12T07:54:40.676Z,3.32
2019-02-12T07:57:35.927Z,3.34
2019-02-12T08:00:33.251Z,3.34
2019-02-12T08:03:41.189Z,3.26
2019-02-12T08:06:25.021Z,3.27
2019-02-12T08:09:29.046Z,3.40
2019-02-12T08:12:50.731Z,3.36
2019-02-12T08:15:37.771Z,3.43
2019-02-12T08:18:12.552Z,3.52
2019-02-12T08:21:20.061Z,3.77
2019-02-12T08:24:31.513Z,3.86
2019-02-12T08:27:43.476Z,3.91
2019-02-12T08:30:51.911Z,3.85
2019-02-12T08:33:49.369Z,3.85
2019-02-12T08:36:48.701Z,3.81
2019-02-12T08:39:56.560Z,3.82
2019-02-12T08:43:01.017Z,3.81
2019-02-12T08:46:12.821Z,3.84
2019-02-12T08:49:16.111Z,3.74
2019-02-12T08:52:40.343Z,3.81
2019-02-12T08:55:36.880Z,3.77
2019-02-12T08:58:48.900Z,3.96
2019-02-12T09:01:46.601Z,4.04
2019-02-12T09:04:37.587Z,3.86
2019-02-12T09:07:35.105Z,3.88
2019-02-12T09:10:48.741Z,3.90
2019-02-12T09:13:56.381Z,3.90
2019-02-12T09:17:03.663Z,3.91
2019-02-12T09:20:10.453Z,3.91
2019-02-12T09:23:26.011Z,3.97
2019-02-12T09:26:23.066Z,4.25
2019-02-12T09:29:38.036Z,4.43
2019-02-12T09:32:41.445Z,4.51
2019-02-12T09:35:34.205Z,4.64
2019-02-12T09:38:39.506Z,4.51
2019-02-12T09:41:33.410Z,4.78
2019-02-12T09:44:30.991Z,4.98
2019-02-12T09:47:24.045Z,5.19
2019-02-12T09:50:32.063Z,5.28
2019-02-12T09:53:32.581Z,5.26
2019-02-12T09:56:30.748Z,5.32
2019-02-12T09:59:41.873Z,5.47
2019-02-12T10:03:00.232Z,5.59
2019-02-12T10:05:53.996Z,5.73
2019-02-12T10:09:01.315Z,5.98
2019-02-12T10:12:19.731Z,5.90
2019-02-12T10:15:30.416Z,5.87
2019-02-12T10:18:36.711Z,5.84
2019-02-12T10:21:54.815Z,5.90
2019-02-12T10:24:53.682Z,5.96
2019-02-12T10:28:08.720Z,6.15
2019-02-12T10:31:08.228Z,6.07
2019-02-12T10:33:35.616Z,6.12
2019-02-12T10:36:03.066Z,6.16
2019-02-12T10:38:30.588Z,6.20
2019-02-12T10:40:58.026Z,6.30
2019-02-12T10:43:25.420Z,6.27
2019-02-12T10:45:52.861Z,6.40
2019-02-12T10:48:20.246Z,6.47
2019-02-12T10:50:47.713Z,6.30
2019-02-12T10:53:15.101Z,6.26
2019-02-12T10:55:42.536Z,6.15
2019-02-12T10:58:09.920Z,6.12
2019-02-12T11:00:37.441Z,6.11
2019-02-12T11:03:04.826Z,6.06
2019-02-12T11:05:32.271Z,6.02
2019-02-12T11:07:59.655Z,6.06
2019-02-12T11:10:27.101Z,6.11
2019-02-12T11:12:54.554Z,6.17
2019-02-12T11:15:22.071Z,6.23
2019-02-12T11:17:49.446Z,6.31
2019-02-12T11:20:16.886Z,6.42
2019-02-12T11:22:44.311Z,6.49
2019-02-12T11:25:11.740Z,6.45
2019-02-12T11:27:39.131Z,6.37
2019-02-12T11:30:07.226Z,6.34
2019-02-12T11:32:34.766Z,6.28
2019-02-12T11:35:02.368Z,6.48
2019-02-12T11:37:29.927Z,6.49
2019-02-12T11:39:57.507Z,6.54
2019-02-12T11:42:25.056Z,6.64
2019-02-12T11:44:52.626Z,6.73
2019-02-12T11:47:20.247Z,6.69
2019-02-12T11:49:47.826Z,6.64
2019-02-12T11:52:15.388Z,6.49
2019-02-12T11:54:43.966Z,6.28
2019-02-12T11:57:11.706Z,6.38
2019-02-12T11:59:39.235Z,6.32
2019-02-12T12:02:06.786Z,6.28
2019-02-12T12:04:34.327Z,6.25
2019-02-12T12:07:01.906Z,6.18
2019-02-12T12:09:29.448Z,6.12
2019-02-12T12:11:57.046Z,5.97
2019-02-12T12:14:24.628Z,5.98
2019-02-12T12:16:52.205Z,6.25
2019-02-12T12:19:19.727Z,6.15
2019-02-12T12:21:47.344Z,6.28
2019-02-12T12:24:14.926Z,6.38
2019-02-12T12:26:42.646Z,6.45
2019-02-12T12:29:10.185Z,6.41
2019-02-12T12:31:37.766Z,6.53
2019-02-12T12:34:05.306Z,6.56
2019-02-12T12:36:32.865Z,6.56
2019-02-12T12:39:00.406Z,6.56
2019-02-12T12:41:28.046Z,6.47
2019-02-12T12:43:55.612Z,6.46
2019-02-12T12:46:25.349Z,6.48
2019-02-12T12:48:52.869Z,6.41
2019-02-12T12:51:20.848Z,6.60
2019-02-12T12:53:48.390Z,6.69
2019-02-12T12:56:15.974Z,6.79
2019-02-12T12:58:43.546Z,6.66
2019-02-12T13:01:11.185Z,6.76
2019-02-12T13:03:38.745Z,6.54
2019-02-12T13:06:06.226Z,6.61
2019-02-12T13:08:33.786Z,6.62
2019-02-12T13:11:01.331Z,6.69
2019-02-12T13:13:29.105Z,6.74
2019-02-12T13:15:56.647Z,6.86
2019-02-12T13:18:24.247Z,7.07
2019-02-12T13:20:51.787Z,7.04
2019-02-12T13:23:19.414Z,6.97
2019-02-12T13:25:46.945Z,7.12
2019-02-12T13:28:14.528Z,7.03
2019-02-12T13:30:42.406Z,7.11
2019-02-12T13:33:10.027Z,7.28
2019-02-12T13:35:39.809Z,7.25
2019-02-12T13:38:07.466Z,7.17
2019-02-12T13:40:35.126Z,7.26
2019-02-12T13:43:05.864Z,7.16
2019-02-12T13:45:33.452Z,7.06
2019-02-12T13:48:01.045Z,7.07
2019-02-12T13:50:28.585Z,7.00
2019-02-12T13:52:56.325Z,6.96
2019-02-12T13:55:23.918Z,6.95
2019-02-12T13:57:51.505Z,6.90
2019-02-12T14:00:19.204Z,6.92
2019-02-12T14:02:46.765Z,7.00
2019-02-12T14:05:15.557Z,6.96
2019-02-12T14:07:43.307Z,6.84
2019-02-12T14:10:10.892Z,6.76
2019-02-12T14:12:38.604Z,6.87
2019-02-12T14:15:08.064Z,7.01
2019-02-12T14:17:35.652Z,7.02
2019-02-12T14:20:04.026Z,6.88
2019-02-12T14:22:31.724Z,6.95
2019-02-12T14:24:59.244Z,7.11
2019-02-12T14:27:26.884Z,7.00
2019-02-12T14:29:54.385Z,7.05
2019-02-12T14:32:54.707Z,6.94
2019-02-12T14:35:59.184Z,6.96
2019-02-12T14:38:35.111Z,6.87
2019-02-12T14:41:09.884Z,6.79
2019-02-12T14:43:57.104Z,6.93
2019-02-12T14:46:26.376Z,7.00
2019-02-12T14:48:58.925Z,6.87
2019-02-12T14:51:26.544Z,6.92
2019-02-12T14:53:55.999Z,6.87
2019-02-12T14:56:24.383Z,6.86
2019-02-12T14:58:54.739Z,6.78
2019-02-12T15:01:45.163Z,6.87
2019-02-12T15:04:23.424Z,6.91
2019-02-12T15:07:09.763Z,6.94
2019-02-12T15:13:16.043Z,6.97
2019-02-12T15:15:50.944Z,6.98
2019-02-12T15:18:24.664Z,6.96
2019-02-12T15:20:54.682Z,6.84
2019-02-12T15:23:22.392Z,6.75
2019-02-12T15:26:05.003Z,6.77
2019-02-12T15:29:04.103Z,6.72
2019-02-12T15:31:29.124Z,6.62
2019-02-12T15:34:31.236Z,6.53
2019-02-12T15:37:25.898Z,6.52
2019-02-12T15:39:55.234Z,6.53
2019-02-12T15:42:23.632Z,6.49
2019-02-12T15:45:07.966Z,6.51
2019-02-12T15:47:48.083Z,6.50
2019-02-12T15:50:21.208Z,6.50
2019-02-12T15:52:52.064Z,6.54
2019-02-12T15:55:26.606Z,6.46
2019-02-12T15:58:08.332Z,6.44
2019-02-12T16:00:36.305Z,6.41
2019-02-12T16:03:04.092Z,6.41
2019-02-12T16:05:34.867Z,6.33
2019-02-12T16:08:10.388Z,6.31
2019-02-12T16:10:40.122Z,6.23
2019-02-12T16:13:09.487Z,6.20
2019-02-12T16:15:45.194Z,6.17
2019-02-12T16:18:13.027Z,6.16
2019-02-12T16:20:45.784Z,6.15
2019-02-12T16:23:14.000Z,6.10
2019-02-12T16:25:42.104Z,5.96
2019-02-12T16:28:13.312Z,5.96
2019-02-12T16:30:41.424Z,5.88
2019-02-12T16:33:11.623Z,5.92
2019-02-12T16:35:39.554Z,5.90
2019-02-12T16:38:07.712Z,5.85
2019-02-12T16:40:35.844Z,5.87
2019-02-12T16:43:14.702Z,5.78
2019-02-12T16:46:01.363Z,5.67
2019-02-12T16:48:36.172Z,5.60
2019-02-12T16:51:04.386Z,5.56
2019-02-12T16:53:32.428Z,5.56
2019-02-12T16:56:07.916Z,5.48
2019-02-12T16:58:30.252Z,5.43
2019-02-12T17:00:58.164Z,5.43
2019-02-12T17:03:26.065Z,5.43
2019-02-12T17:05:53.893Z,5.37
2019-02-12T17:08:21.567Z,5.37
2019-02-12T17:10:49.401Z,5.37
2019-02-12T17:13:18.261Z,5.25
2019-02-12T17:15:46.214Z,5.28
2019-02-12T17:18:14.151Z,5.29
2019-02-12T17:20:41.879Z,5.28
2019-02-12T17:23:09.816Z,5.29
2019-02-12T17:25:42.771Z,5.21
2019-02-12T17:28:13.479Z,5.24
2019-02-12T17:30:41.477Z,5.20
2019-02-12T17:33:52.555Z,5.19
2019-02-12T17:36:24.315Z,5.21
2019-02-12T17:38:52.284Z,5.16
2019-02-12T17:41:20.007Z,5.11
2019-02-12T17:44:03.174Z,5.08
2019-02-12T17:46:39.340Z,5.09
2019-02-12T17:49:07.212Z,5.06
2019-02-12T17:51:35.476Z,5.02
2019-02-12T17:54:15.460Z,4.98
2019-02-12T17:56:42.713Z,4.95
2019-02-12T17:59:10.396Z,4.96
2019-02-12T18:01:38.263Z,4.90
2019-02-12T18:04:06.188Z,4.88
2019-02-12T18:06:45.425Z,4.91
2019-02-12T18:09:13.401Z,4.83
2019-02-12T18:11:41.256Z,4.83
2019-02-12T18:14:24.044Z,4.84
2019-02-12T18:16:52.131Z,4.80
2019-02-12T18:19:22.682Z,4.79
2019-02-12T18:21:51.992Z,4.75
2019-02-12T18:24:19.932Z,4.73
2019-02-12T18:26:47.892Z,4.69
2019-02-12T18:29:16.081Z,4.68
2019-02-12T18:31:44.091Z,4.71
2019-02-12T18:34:11.991Z,4.71
2019-02-12T18:36:39.753Z,4.69
2019-02-12T18:39:08.682Z,4.70
2019-02-12T18:41:36.461Z,4.69
2019-02-12T18:44:06.596Z,4.64
2019-02-12T18:46:34.321Z,4.64
2019-02-12T18:49:02.117Z,4.63
2019-02-12T18:51:30.051Z,4.62
2019-02-12T18:53:57.996Z,4.61
2019-02-12T18:56:25.786Z,4.61
2019-02-12T18:58:53.596Z,4.57
2019-02-12T19:01:21.381Z,4.53
2019-02-12T19:03:49.254Z,4.54
2019-02-12T19:06:17.062Z,4.53
2019-02-12T19:08:44.936Z,4.49
2019-02-12T19:11:12.881Z,4.47
2019-02-12T19:13:40.907Z,4.47
2019-02-12T19:16:08.691Z,4.44
2019-02-12T19:18:36.521Z,4.39
2019-02-12T19:21:04.935Z,4.42
2019-02-12T19:23:32.826Z,4.36
2019-02-12T19:26:00.751Z,4.32
2019-02-12T19:28:28.783Z,4.34
2019-02-12T19:30:56.626Z,4.29
2019-02-12T19:33:24.611Z,4.25
2019-02-12T19:35:52.447Z,4.21
2019-02-12T19:38:20.423Z,4.19
2019-02-12T19:40:48.361Z,4.12
2019-02-12T19:43:16.226Z,4.14
2019-02-12T19:45:44.166Z,4.09
2019-02-12T19:48:12.386Z,4.07
2019-02-12T19:50:40.270Z,4.05
2019-02-12T19:53:08.301Z,3.98
2019-02-12T19:55:39.776Z,4.03
2019-02-12T19:58:08.341Z,4.05
2019-02-12T20:00:36.166Z,3.99
2019-02-12T20:03:05.673Z,3.97
2019-02-12T20:05:33.561Z,3.97
2019-02-12T20:08:01.681Z,4.00
2019-02-12T20:10:29.629Z,4.08
2019-02-12T20:12:57.587Z,4.03
2019-02-12T20:15:25.491Z,4.06
2019-02-12T20:17:53.491Z,4.02
2019-02-12T20:20:21.322Z,4.09
2019-02-12T20:22:49.366Z,3.97
2019-02-12T20:25:17.351Z,4.02
2019-02-12T20:27:45.186Z,3.98
2019-02-12T20:30:14.148Z,3.98
2019-02-12T20:32:42.211Z,3.95
2019-02-12T20:35:14.841Z,3.94
2019-02-12T20:37:42.866Z,3.90
2019-02-12T20:40:11.719Z,3.80
2019-02-12T20:42:40.843Z,3.81
2019-02-12T20:45:11.239Z,3.78
2019-02-12T20:47:40.261Z,3.76
2019-02-12T20:50:09.420Z,3.79
2019-02-12T20:52:37.386Z,3.73
2019-02-12T20:55:05.646Z,3.67
2019-02-12T20:57:33.916Z,3.69
2019-02-12T21:00:02.031Z,3.75
2019-02-12T21:02:29.951Z,3.79
2019-02-12T21:04:57.834Z,3.71
2019-02-12T21:07:25.931Z,3.67
2019-02-12T21:09:53.871Z,3.71
2019-02-12T21:12:22.141Z,3.67
2019-02-12T21:14:50.011Z,3.70
2019-02-12T21:17:18.286Z,3.66
2019-02-12T21:19:46.146Z,3.63
2019-02-12T21:22:13.966Z,3.58
2019-02-12T21:24:41.825Z,3.58
2019-02-12T21:27:09.602Z,3.56
2019-02-12T21:29:37.536Z,3.54
2019-02-12T21:32:05.451Z,3.49
2019-02-12T21:34:33.434Z,3.55
2019-02-12T21:37:01.215Z,3.56
2019-02-12T21:39:31.106Z,3.50
2019-02-12T21:41:58.788Z,3.51
2019-02-12T21:44:26.741Z,3.55
2019-02-12T21:46:54.541Z,3.59
2019-02-12T21:49:22.341Z,3.65
2019-02-12T21:51:50.006Z,3.69
2019-02-12T21:54:17.766Z,3.85
2019-02-12T21:56:45.482Z,3.92
2019-02-12T21:59:13.916Z,3.94
2019-02-12T22:01:41.629Z,4.02
2019-02-12T22:04:09.241Z,4.08
2019-02-12T22:06:36.921Z,4.08
2019-02-12T22:09:05.131Z,4.16
2019-02-12T22:11:32.726Z,4.24
2019-02-12T22:14:00.301Z,4.16
2019-02-12T22:16:27.810Z,4.25
2019-02-12T22:18:55.346Z,4.34
2019-02-12T22:21:22.861Z,4.34
2019-02-12T22:23:50.301Z,4.42
2019-02-12T22:26:17.786Z,4.46
2019-02-12T22:28:46.362Z,4.46
2019-02-12T22:31:13.821Z,4.48
2019-02-12T22:33:41.247Z,4.52
2019-02-12T22:36:08.760Z,4.55
2019-02-12T22:38:36.131Z,4.60
2019-02-12T22:41:03.681Z,4.61
2019-02-12T22:43:31.061Z,4.57
2019-02-12T22:45:58.687Z,4.63
2019-02-12T22:48:26.086Z,4.57
2019-02-12T22:50:53.616Z,4.62
2019-02-12T22:53:21.113Z,4.59
2019-02-12T22:55:48.626Z,4.60
2019-02-12T22:58:16.036Z,4.49
2019-02-12T23:00:54.526Z,4.58
2019-02-12T23:03:22.023Z,4.59
2019-02-12T23:05:49.510Z,4.62
2019-02-12T23:08:16.890Z,4.59
2019-02-12T23:10:44.315Z,4.61
2019-02-12T23:13:11.871Z,4.62
2019-02-12T23:15:39.745Z,4.72
2019-02-12T23:18:07.139Z,4.77
2019-02-12T23:20:34.606Z,4.73
2019-02-12T23:23:02.110Z,4.73
2019-02-12T23:25:29.496Z,4.70
2019-02-12T23:27:57.804Z,4.79
2019-02-12T23:30:25.434Z,4.76
2019-02-12T23:32:52.960Z,4.86
2019-02-12T23:35:21.582Z,4.86
2019-02-12T23:37:49.117Z,4.94
2019-02-12T23:40:16.625Z,4.95
2019-02-12T23:42:44.158Z,4.98
2019-02-12T23:45:12.033Z,4.98
2019-02-12T23:47:40.481Z,4.99
2019-02-12T23:50:08.261Z,5.02
2019-02-12T23:52:35.826Z,5.04
2019-02-12T23:55:03.427Z,5.04
2019-02-12T23:57:30.912Z,5.08
2019-02-12T23:59:58.336Z,5.04
